sensor_id;sensor_type;location;lat;lon;timestamp;temperature;humidity
12436;DHT22;6282;51.440;6.938;2023-03-26T00:01:30;7.70;99.90
12436;DHT22;6282;51.440;6.938;2023-03-26T00:03:59;7.70;99.90
12436;DHT22;6282;51.440;6.938;2023-03-26T00:06:28;7.80;99.90
12436;DHT22;6282;51.440;6.938;2023-03-26T00:08:56;7.80;99.90
12436;DHT22;6282;51.440;6.938;2023-03-26T00:11:25;7.80;99.90
12436;DHT22;6282;51.440;6.938;2023-03-26T00:13:53;7.80;99.90
12436;DHT22;6282;51.440;6.938;2023-03-26T00:16:23;7.80;99.90
12436;DHT22;6282;51.440;6.938;2023-03-26T00:18:50;7.80;99.90
12436;DHT22;6282;51.440;6.938;2023-03-26T00:21:21;7.80;99.90
12436;DHT22;6282;51.440;6.938;2023-03-26T00:23:50;7.80;99.90
12436;DHT22;6282;51.440;6.938;2023-03-26T00:26:18;7.80;99.90
12436;DHT22;6282;51.440;6.938;2023-03-26T00:28:45;7.80;99.90
12436;DHT22;6282;51.440;6.938;2023-03-26T00:31:15;7.90;99.90
12436;DHT22;6282;51.440;6.938;2023-03-26T00:33:42;7.70;99.90
12436;DHT22;6282;51.440;6.938;2023-03-26T00:36:15;7.70;99.90
12436;DHT22;6282;51.440;6.938;2023-03-26T00:38:45;7.70;99.90
12436;DHT22;6282;51.440;6.938;2023-03-26T00:41:15;7.70;99.90
12436;DHT22;6282;51.440;6.938;2023-03-26T00:43:51;7.70;99.90
12436;DHT22;6282;51.440;6.938;2023-03-26T00:46:21;7.70;99.90
12436;DHT22;6282;51.440;6.938;2023-03-26T00:48:48;7.90;99.90
12436;DHT22;6282;51.440;6.938;2023-03-26T00:51:17;7.80;99.90
12436;DHT22;6282;51.440;6.938;2023-03-26T00:53:47;7.80;99.90
12436;DHT22;6282;51.440;6.938;2023-03-26T00:56:15;7.70;99.90
12436;DHT22;6282;51.440;6.938;2023-03-26T00:58:42;7.70;99.90
12436;DHT22;6282;51.440;6.938;2023-03-26T01:01:12;7.70;99.90
12436;DHT22;6282;51.440;6.938;2023-03-26T01:03:40;7.70;99.90
12436;DHT22;6282;51.440;6.938;2023-03-26T01:06:10;7.70;99.90
12436;DHT22;6282;51.440;6.938;2023-03-26T01:08:40;7.80;99.90
12436;DHT22;6282;51.440;6.938;2023-03-26T01:11:12;7.80;99.90
12436;DHT22;6282;51.440;6.938;2023-03-26T01:13:42;7.80;99.90
12436;DHT22;6282;51.440;6.938;2023-03-26T01:16:18;7.80;99.90
12436;DHT22;6282;51.440;6.938;2023-03-26T01:18:47;7.80;99.90
12436;DHT22;6282;51.440;6.938;2023-03-26T01:21:18;7.80;99.90
12436;DHT22;6282;51.440;6.938;2023-03-26T01:23:55;7.80;99.90
12436;DHT22;6282;51.440;6.938;2023-03-26T01:26:31;7.80;99.90
12436;DHT22;6282;51.440;6.938;2023-03-26T01:29:01;7.80;99.90
12436;DHT22;6282;51.440;6.938;2023-03-26T01:31:31;7.80;99.90
12436;DHT22;6282;51.440;6.938;2023-03-26T01:34:05;7.80;99.90
12436;DHT22;6282;51.440;6.938;2023-03-26T01:36:40;7.80;99.90
12436;DHT22;6282;51.440;6.938;2023-03-26T01:39:16;7.80;99.90
12436;DHT22;6282;51.440;6.938;2023-03-26T01:41:50;7.80;99.90
12436;DHT22;6282;51.440;6.938;2023-03-26T01:44:26;7.80;99.90
12436;DHT22;6282;51.440;6.938;2023-03-26T01:46:57;7.80;99.90
12436;DHT22;6282;51.440;6.938;2023-03-26T01:49:26;7.70;99.90
12436;DHT22;6282;51.440;6.938;2023-03-26T01:51:54;7.80;99.90
12436;DHT22;6282;51.440;6.938;2023-03-26T01:54:25;7.80;99.90
12436;DHT22;6282;51.440;6.938;2023-03-26T01:57:00;7.70;99.90
12436;DHT22;6282;51.440;6.938;2023-03-26T01:59:44;7.60;99.90
12436;DHT22;6282;51.440;6.938;2023-03-26T02:02:18;7.50;99.90
12436;DHT22;6282;51.440;6.938;2023-03-26T02:04:51;7.50;99.90
12436;DHT22;6282;51.440;6.938;2023-03-26T02:07:23;7.50;99.90
12436;DHT22;6282;51.440;6.938;2023-03-26T02:09:55;7.50;99.90
12436;DHT22;6282;51.440;6.938;2023-03-26T02:12:24;7.50;99.90
12436;DHT22;6282;51.440;6.938;2023-03-26T02:14:52;7.50;99.90
12436;DHT22;6282;51.440;6.938;2023-03-26T02:17:19;7.40;99.90
12436;DHT22;6282;51.440;6.938;2023-03-26T02:19:48;7.90;99.90
12436;DHT22;6282;51.440;6.938;2023-03-26T02:22:16;7.30;99.90
12436;DHT22;6282;51.440;6.938;2023-03-26T02:24:43;7.30;99.90
12436;DHT22;6282;51.440;6.938;2023-03-26T02:27:12;7.40;99.90
12436;DHT22;6282;51.440;6.938;2023-03-26T02:29:42;7.40;99.90
12436;DHT22;6282;51.440;6.938;2023-03-26T02:32:10;7.40;99.90
12436;DHT22;6282;51.440;6.938;2023-03-26T02:34:37;7.50;99.90
12436;DHT22;6282;51.440;6.938;2023-03-26T02:37:04;7.50;99.90
12436;DHT22;6282;51.440;6.938;2023-03-26T02:39:31;7.60;99.90
12436;DHT22;6282;51.440;6.938;2023-03-26T02:41:58;7.60;99.90
12436;DHT22;6282;51.440;6.938;2023-03-26T02:44:26;7.60;99.90
12436;DHT22;6282;51.440;6.938;2023-03-26T02:46:53;7.60;99.90
12436;DHT22;6282;51.440;6.938;2023-03-26T02:49:20;7.60;99.90
12436;DHT22;6282;51.440;6.938;2023-03-26T02:51:46;7.70;99.90
12436;DHT22;6282;51.440;6.938;2023-03-26T02:54:13;7.70;99.90
12436;DHT22;6282;51.440;6.938;2023-03-26T02:56:41;7.70;99.90
12436;DHT22;6282;51.440;6.938;2023-03-26T02:59:08;7.70;99.90
12436;DHT22;6282;51.440;6.938;2023-03-26T03:01:36;7.70;99.90
12436;DHT22;6282;51.440;6.938;2023-03-26T03:04:07;7.70;99.90
12436;DHT22;6282;51.440;6.938;2023-03-26T03:06:34;7.70;99.90
12436;DHT22;6282;51.440;6.938;2023-03-26T03:09:02;7.70;99.90
12436;DHT22;6282;51.440;6.938;2023-03-26T03:11:29;7.70;99.90
12436;DHT22;6282;51.440;6.938;2023-03-26T03:13:56;7.70;99.90
12436;DHT22;6282;51.440;6.938;2023-03-26T03:16:23;7.70;99.90
12436;DHT22;6282;51.440;6.938;2023-03-26T03:18:51;7.70;99.90
12436;DHT22;6282;51.440;6.938;2023-03-26T03:21:22;7.80;99.90
12436;DHT22;6282;51.440;6.938;2023-03-26T03:23:49;7.70;99.90
12436;DHT22;6282;51.440;6.938;2023-03-26T03:26:17;7.60;99.90
12436;DHT22;6282;51.440;6.938;2023-03-26T03:28:46;7.60;99.90
12436;DHT22;6282;51.440;6.938;2023-03-26T03:31:16;7.70;99.90
12436;DHT22;6282;51.440;6.938;2023-03-26T03:33:43;7.70;99.90
12436;DHT22;6282;51.440;6.938;2023-03-26T03:36:13;7.60;99.90
12436;DHT22;6282;51.440;6.938;2023-03-26T03:38:43;7.60;99.90
12436;DHT22;6282;51.440;6.938;2023-03-26T03:41:10;7.60;99.90
12436;DHT22;6282;51.440;6.938;2023-03-26T03:43:37;7.60;99.90
12436;DHT22;6282;51.440;6.938;2023-03-26T03:46:04;7.70;99.90
12436;DHT22;6282;51.440;6.938;2023-03-26T03:48:31;7.80;99.90
12436;DHT22;6282;51.440;6.938;2023-03-26T03:50:57;7.70;99.90
12436;DHT22;6282;51.440;6.938;2023-03-26T03:53:26;7.70;99.90
12436;DHT22;6282;51.440;6.938;2023-03-26T03:55:54;7.80;99.90
12436;DHT22;6282;51.440;6.938;2023-03-26T03:58:22;7.90;99.90
12436;DHT22;6282;51.440;6.938;2023-03-26T04:00:51;7.80;99.90
12436;DHT22;6282;51.440;6.938;2023-03-26T04:03:18;7.80;99.90
12436;DHT22;6282;51.440;6.938;2023-03-26T04:05:45;7.80;99.90
12436;DHT22;6282;51.440;6.938;2023-03-26T04:08:14;7.70;99.90
12436;DHT22;6282;51.440;6.938;2023-03-26T04:10:42;7.60;99.90
12436;DHT22;6282;51.440;6.938;2023-03-26T04:13:10;7.60;99.90
12436;DHT22;6282;51.440;6.938;2023-03-26T04:15:37;7.50;99.90
12436;DHT22;6282;51.440;6.938;2023-03-26T04:18:04;7.50;99.90
12436;DHT22;6282;51.440;6.938;2023-03-26T04:20:36;7.50;99.90
12436;DHT22;6282;51.440;6.938;2023-03-26T04:23:05;7.50;99.90
12436;DHT22;6282;51.440;6.938;2023-03-26T04:25:33;7.60;99.90
12436;DHT22;6282;51.440;6.938;2023-03-26T04:28:04;7.60;99.90
12436;DHT22;6282;51.440;6.938;2023-03-26T04:30:32;7.60;99.90
12436;DHT22;6282;51.440;6.938;2023-03-26T04:32:59;7.60;99.90
12436;DHT22;6282;51.440;6.938;2023-03-26T04:35:30;7.60;99.90
12436;DHT22;6282;51.440;6.938;2023-03-26T04:37:59;7.60;99.90
12436;DHT22;6282;51.440;6.938;2023-03-26T04:40:26;7.70;99.90
12436;DHT22;6282;51.440;6.938;2023-03-26T04:42:55;7.70;99.90
12436;DHT22;6282;51.440;6.938;2023-03-26T04:45:24;7.70;99.90
12436;DHT22;6282;51.440;6.938;2023-03-26T04:47:51;7.80;99.90
12436;DHT22;6282;51.440;6.938;2023-03-26T04:50:17;7.80;99.90
12436;DHT22;6282;51.440;6.938;2023-03-26T04:52:45;7.80;99.90
12436;DHT22;6282;51.440;6.938;2023-03-26T04:55:18;7.80;99.90
12436;DHT22;6282;51.440;6.938;2023-03-26T04:57:48;7.80;99.90
12436;DHT22;6282;51.440;6.938;2023-03-26T05:00:17;7.90;99.90
12436;DHT22;6282;51.440;6.938;2023-03-26T05:02:46;7.90;99.90
12436;DHT22;6282;51.440;6.938;2023-03-26T05:05:15;7.80;99.90
12436;DHT22;6282;51.440;6.938;2023-03-26T05:07:42;7.80;99.90
12436;DHT22;6282;51.440;6.938;2023-03-26T05:10:11;7.80;99.90
12436;DHT22;6282;51.440;6.938;2023-03-26T05:12:39;7.80;99.90
12436;DHT22;6282;51.440;6.938;2023-03-26T05:15:07;7.80;99.90
12436;DHT22;6282;51.440;6.938;2023-03-26T05:17:34;7.80;99.90
12436;DHT22;6282;51.440;6.938;2023-03-26T05:20:14;7.80;99.90
12436;DHT22;6282;51.440;6.938;2023-03-26T05:22:43;7.80;99.90
12436;DHT22;6282;51.440;6.938;2023-03-26T05:25:11;7.70;99.90
12436;DHT22;6282;51.440;6.938;2023-03-26T05:27:38;7.60;99.90
12436;DHT22;6282;51.440;6.938;2023-03-26T05:30:06;7.60;99.90
12436;DHT22;6282;51.440;6.938;2023-03-26T05:32:33;7.50;99.90
12436;DHT22;6282;51.440;6.938;2023-03-26T05:35:00;7.60;99.90
12436;DHT22;6282;51.440;6.938;2023-03-26T05:37:30;7.50;99.90
12436;DHT22;6282;51.440;6.938;2023-03-26T05:39:57;7.50;99.90
12436;DHT22;6282;51.440;6.938;2023-03-26T05:42:27;7.50;99.90
12436;DHT22;6282;51.440;6.938;2023-03-26T05:44:54;7.40;99.90
12436;DHT22;6282;51.440;6.938;2023-03-26T05:47:20;7.40;99.90
12436;DHT22;6282;51.440;6.938;2023-03-26T05:49:47;7.40;99.90
12436;DHT22;6282;51.440;6.938;2023-03-26T05:52:16;7.50;99.90
12436;DHT22;6282;51.440;6.938;2023-03-26T05:54:44;7.50;99.90
12436;DHT22;6282;51.440;6.938;2023-03-26T05:57:11;7.50;99.90
12436;DHT22;6282;51.440;6.938;2023-03-26T05:59:38;7.60;99.90
12436;DHT22;6282;51.440;6.938;2023-03-26T06:02:06;7.50;99.90
12436;DHT22;6282;51.440;6.938;2023-03-26T06:04:32;7.50;99.90
12436;DHT22;6282;51.440;6.938;2023-03-26T06:06:59;7.50;99.90
12436;DHT22;6282;51.440;6.938;2023-03-26T06:09:28;7.50;99.90
12436;DHT22;6282;51.440;6.938;2023-03-26T06:11:56;7.50;99.90
12436;DHT22;6282;51.440;6.938;2023-03-26T06:14:23;7.50;99.90
12436;DHT22;6282;51.440;6.938;2023-03-26T06:16:50;7.50;99.90
12436;DHT22;6282;51.440;6.938;2023-03-26T06:19:17;7.50;99.90
12436;DHT22;6282;51.440;6.938;2023-03-26T06:21:43;7.60;99.90
12436;DHT22;6282;51.440;6.938;2023-03-26T06:24:10;7.60;99.90
12436;DHT22;6282;51.440;6.938;2023-03-26T06:26:37;7.60;99.90
12436;DHT22;6282;51.440;6.938;2023-03-26T06:29:05;7.60;99.90
12436;DHT22;6282;51.440;6.938;2023-03-26T06:31:32;7.60;99.90
12436;DHT22;6282;51.440;6.938;2023-03-26T06:33:59;7.60;99.90
12436;DHT22;6282;51.440;6.938;2023-03-26T06:36:26;7.60;99.90
12436;DHT22;6282;51.440;6.938;2023-03-26T06:38:52;7.60;99.90
12436;DHT22;6282;51.440;6.938;2023-03-26T06:41:19;7.60;99.90
12436;DHT22;6282;51.440;6.938;2023-03-26T06:43:46;7.60;99.90
12436;DHT22;6282;51.440;6.938;2023-03-26T06:46:15;7.60;99.90
12436;DHT22;6282;51.440;6.938;2023-03-26T06:48:42;7.60;99.90
12436;DHT22;6282;51.440;6.938;2023-03-26T06:51:09;7.70;99.90
12436;DHT22;6282;51.440;6.938;2023-03-26T06:53:36;7.70;99.90
12436;DHT22;6282;51.440;6.938;2023-03-26T06:56:03;7.70;99.90
12436;DHT22;6282;51.440;6.938;2023-03-26T06:58:30;7.70;99.90
12436;DHT22;6282;51.440;6.938;2023-03-26T07:00:57;7.70;99.90
12436;DHT22;6282;51.440;6.938;2023-03-26T07:03:25;7.70;99.90
12436;DHT22;6282;51.440;6.938;2023-03-26T07:05:52;7.80;99.90
12436;DHT22;6282;51.440;6.938;2023-03-26T07:08:19;7.80;99.90
12436;DHT22;6282;51.440;6.938;2023-03-26T07:10:46;7.80;99.90
12436;DHT22;6282;51.440;6.938;2023-03-26T07:13:13;7.80;99.90
12436;DHT22;6282;51.440;6.938;2023-03-26T07:15:40;7.80;99.90
12436;DHT22;6282;51.440;6.938;2023-03-26T07:18:06;7.90;99.90
12436;DHT22;6282;51.440;6.938;2023-03-26T07:20:35;7.90;99.90
12436;DHT22;6282;51.440;6.938;2023-03-26T07:23:02;7.90;99.90
12436;DHT22;6282;51.440;6.938;2023-03-26T07:25:30;7.80;99.90
12436;DHT22;6282;51.440;6.938;2023-03-26T07:28:03;7.90;99.90
12436;DHT22;6282;51.440;6.938;2023-03-26T07:30:37;7.80;99.90
12436;DHT22;6282;51.440;6.938;2023-03-26T07:33:13;7.90;99.90
12436;DHT22;6282;51.440;6.938;2023-03-26T07:35:47;7.90;99.90
12436;DHT22;6282;51.440;6.938;2023-03-26T07:38:33;7.90;99.90
12436;DHT22;6282;51.440;6.938;2023-03-26T07:41:07;7.90;99.90
12436;DHT22;6282;51.440;6.938;2023-03-26T07:43:49;7.90;99.90
12436;DHT22;6282;51.440;6.938;2023-03-26T07:46:23;8.00;99.90
12436;DHT22;6282;51.440;6.938;2023-03-26T07:48:53;7.90;99.90
12436;DHT22;6282;51.440;6.938;2023-03-26T07:51:25;7.90;99.90
12436;DHT22;6282;51.440;6.938;2023-03-26T07:53:52;7.90;99.90
12436;DHT22;6282;51.440;6.938;2023-03-26T07:56:20;7.90;99.90
12436;DHT22;6282;51.440;6.938;2023-03-26T07:59:02;7.80;99.90
12436;DHT22;6282;51.440;6.938;2023-03-26T08:01:41;7.80;99.90
12436;DHT22;6282;51.440;6.938;2023-03-26T08:07:19;8.10;99.90
12436;DHT22;6282;51.440;6.938;2023-03-26T08:09:59;8.10;99.90
12436;DHT22;6282;51.440;6.938;2023-03-26T08:12:34;8.20;99.90
12436;DHT22;6282;51.440;6.938;2023-03-26T08:15:08;8.00;99.90
12436;DHT22;6282;51.440;6.938;2023-03-26T08:17:41;8.00;99.90
12436;DHT22;6282;51.440;6.938;2023-03-26T08:20:17;8.00;99.90
12436;DHT22;6282;51.440;6.938;2023-03-26T08:22:56;8.20;99.90
12436;DHT22;6282;51.440;6.938;2023-03-26T08:25:28;8.30;99.90
12436;DHT22;6282;51.440;6.938;2023-03-26T08:28:06;8.30;99.90
12436;DHT22;6282;51.440;6.938;2023-03-26T08:30:35;8.40;99.90
12436;DHT22;6282;51.440;6.938;2023-03-26T08:33:11;8.40;99.90
12436;DHT22;6282;51.440;6.938;2023-03-26T08:35:38;8.20;99.90
12436;DHT22;6282;51.440;6.938;2023-03-26T08:38:08;8.30;99.90
12436;DHT22;6282;51.440;6.938;2023-03-26T08:40:51;8.50;99.90
12436;DHT22;6282;51.440;6.938;2023-03-26T08:43:43;8.20;99.90
12436;DHT22;6282;51.440;6.938;2023-03-26T08:49:36;8.20;99.90
12436;DHT22;6282;51.440;6.938;2023-03-26T08:55:39;8.40;99.90
12436;DHT22;6282;51.440;6.938;2023-03-26T08:58:36;8.40;99.90
12436;DHT22;6282;51.440;6.938;2023-03-26T09:01:34;8.30;99.90
12436;DHT22;6282;51.440;6.938;2023-03-26T09:07:35;8.20;99.90
12436;DHT22;6282;51.440;6.938;2023-03-26T09:10:36;8.50;99.90
12436;DHT22;6282;51.440;6.938;2023-03-26T09:13:49;8.50;99.90
12436;DHT22;6282;51.440;6.938;2023-03-26T09:16:53;8.50;99.90
12436;DHT22;6282;51.440;6.938;2023-03-26T09:19:46;8.50;99.90
12436;DHT22;6282;51.440;6.938;2023-03-26T09:22:40;8.50;99.90
12436;DHT22;6282;51.440;6.938;2023-03-26T09:25:25;8.40;99.90
12436;DHT22;6282;51.440;6.938;2023-03-26T09:28:27;8.40;99.90
12436;DHT22;6282;51.440;6.938;2023-03-26T09:31:25;8.30;99.90
12436;DHT22;6282;51.440;6.938;2023-03-26T09:34:09;8.30;99.90
12436;DHT22;6282;51.440;6.938;2023-03-26T09:36:51;8.10;99.90
12436;DHT22;6282;51.440;6.938;2023-03-26T09:39:33;8.20;99.90
12436;DHT22;6282;51.440;6.938;2023-03-26T09:42:07;8.40;99.90
12436;DHT22;6282;51.440;6.938;2023-03-26T09:48:09;8.50;99.90
12436;DHT22;6282;51.440;6.938;2023-03-26T09:53:50;8.50;99.90
12436;DHT22;6282;51.440;6.938;2023-03-26T09:56:32;8.40;99.90
12436;DHT22;6282;51.440;6.938;2023-03-26T09:59:10;8.40;99.90
12436;DHT22;6282;51.440;6.938;2023-03-26T10:01:48;8.30;99.90
12436;DHT22;6282;51.440;6.938;2023-03-26T10:04:46;8.40;99.90
12436;DHT22;6282;51.440;6.938;2023-03-26T10:07:32;8.40;99.90
12436;DHT22;6282;51.440;6.938;2023-03-26T10:10:07;8.20;99.90
12436;DHT22;6282;51.440;6.938;2023-03-26T10:12:42;8.10;99.90
12436;DHT22;6282;51.440;6.938;2023-03-26T10:15:27;8.20;99.90
12436;DHT22;6282;51.440;6.938;2023-03-26T10:18:08;8.10;99.90
12436;DHT22;6282;51.440;6.938;2023-03-26T10:20:51;8.10;99.90
12436;DHT22;6282;51.440;6.938;2023-03-26T10:23:43;8.20;99.90
12436;DHT22;6282;51.440;6.938;2023-03-26T10:26:34;8.40;99.90
12436;DHT22;6282;51.440;6.938;2023-03-26T10:29:20;8.20;99.90
12436;DHT22;6282;51.440;6.938;2023-03-26T10:31:52;8.20;99.90
12436;DHT22;6282;51.440;6.938;2023-03-26T10:34:49;8.10;99.90
12436;DHT22;6282;51.440;6.938;2023-03-26T10:37:32;8.10;99.90
12436;DHT22;6282;51.440;6.938;2023-03-26T10:40:17;7.90;99.90
12436;DHT22;6282;51.440;6.938;2023-03-26T10:42:59;8.10;99.90
12436;DHT22;6282;51.440;6.938;2023-03-26T10:45:43;7.70;99.90
12436;DHT22;6282;51.440;6.938;2023-03-26T10:48:26;7.80;99.90
12436;DHT22;6282;51.440;6.938;2023-03-26T10:51:22;7.60;99.90
12436;DHT22;6282;51.440;6.938;2023-03-26T10:53:57;7.70;99.90
12436;DHT22;6282;51.440;6.938;2023-03-26T10:56:27;7.70;99.90
12436;DHT22;6282;51.440;6.938;2023-03-26T10:58:55;7.60;99.90
12436;DHT22;6282;51.440;6.938;2023-03-26T11:01:31;7.60;99.90
12436;DHT22;6282;51.440;6.938;2023-03-26T11:04:08;7.90;99.90
12436;DHT22;6282;51.440;6.938;2023-03-26T11:06:45;7.90;99.90
12436;DHT22;6282;51.440;6.938;2023-03-26T11:09:24;8.10;99.90
12436;DHT22;6282;51.440;6.938;2023-03-26T11:12:00;8.00;99.90
12436;DHT22;6282;51.440;6.938;2023-03-26T11:14:32;7.90;99.90
12436;DHT22;6282;51.440;6.938;2023-03-26T11:17:10;7.80;99.90
12436;DHT22;6282;51.440;6.938;2023-03-26T11:19:43;7.70;99.90
12436;DHT22;6282;51.440;6.938;2023-03-26T11:22:20;7.70;99.90
12436;DHT22;6282;51.440;6.938;2023-03-26T11:25:11;8.00;99.90
12436;DHT22;6282;51.440;6.938;2023-03-26T11:27:49;8.10;99.90
12436;DHT22;6282;51.440;6.938;2023-03-26T11:30:26;7.70;99.90
12436;DHT22;6282;51.440;6.938;2023-03-26T11:32:57;8.00;99.90
12436;DHT22;6282;51.440;6.938;2023-03-26T11:35:28;8.30;99.90
12436;DHT22;6282;51.440;6.938;2023-03-26T11:38:00;8.20;99.90
12436;DHT22;6282;51.440;6.938;2023-03-26T11:40:32;7.90;99.90
12436;DHT22;6282;51.440;6.938;2023-03-26T11:43:02;7.90;99.90
12436;DHT22;6282;51.440;6.938;2023-03-26T11:45:31;8.00;99.90
12436;DHT22;6282;51.440;6.938;2023-03-26T11:48:05;8.10;99.90
12436;DHT22;6282;51.440;6.938;2023-03-26T11:50:37;8.30;99.90
12436;DHT22;6282;51.440;6.938;2023-03-26T11:53:11;7.90;99.90
12436;DHT22;6282;51.440;6.938;2023-03-26T11:55:42;8.20;99.90
12436;DHT22;6282;51.440;6.938;2023-03-26T11:58:22;8.20;99.90
12436;DHT22;6282;51.440;6.938;2023-03-26T12:00:51;8.50;99.90
12436;DHT22;6282;51.440;6.938;2023-03-26T12:03:19;8.60;99.90
12436;DHT22;6282;51.440;6.938;2023-03-26T12:05:49;8.50;99.90
12436;DHT22;6282;51.440;6.938;2023-03-26T12:08:25;8.60;99.90
12436;DHT22;6282;51.440;6.938;2023-03-26T12:11:04;8.30;99.90
12436;DHT22;6282;51.440;6.938;2023-03-26T12:13:35;8.70;99.90
12436;DHT22;6282;51.440;6.938;2023-03-26T12:16:10;8.70;99.90
12436;DHT22;6282;51.440;6.938;2023-03-26T12:18:38;8.70;99.90
12436;DHT22;6282;51.440;6.938;2023-03-26T12:21:08;9.00;99.90
12436;DHT22;6282;51.440;6.938;2023-03-26T12:26:30;8.90;99.90
12436;DHT22;6282;51.440;6.938;2023-03-26T12:29:05;8.90;99.90
12436;DHT22;6282;51.440;6.938;2023-03-26T12:31:40;8.50;99.90
12436;DHT22;6282;51.440;6.938;2023-03-26T12:34:14;9.10;99.90
12436;DHT22;6282;51.440;6.938;2023-03-26T12:36:47;9.10;99.90
12436;DHT22;6282;51.440;6.938;2023-03-26T12:39:35;9.20;99.90
12436;DHT22;6282;51.440;6.938;2023-03-26T12:42:14;9.10;99.90
12436;DHT22;6282;51.440;6.938;2023-03-26T12:44:51;9.10;99.90
12436;DHT22;6282;51.440;6.938;2023-03-26T12:47:20;8.90;99.90
12436;DHT22;6282;51.440;6.938;2023-03-26T12:49:48;8.80;99.90
12436;DHT22;6282;51.440;6.938;2023-03-26T12:52:26;9.00;99.90
12436;DHT22;6282;51.440;6.938;2023-03-26T12:54:59;9.10;99.90
12436;DHT22;6282;51.440;6.938;2023-03-26T12:57:33;8.90;99.90
12436;DHT22;6282;51.440;6.938;2023-03-26T13:00:24;9.20;99.90
12436;DHT22;6282;51.440;6.938;2023-03-26T13:03:13;9.20;99.90
12436;DHT22;6282;51.440;6.938;2023-03-26T13:05:58;9.30;99.90
12436;DHT22;6282;51.440;6.938;2023-03-26T13:08:45;9.40;99.90
12436;DHT22;6282;51.440;6.938;2023-03-26T13:11:24;9.50;99.90
12436;DHT22;6282;51.440;6.938;2023-03-26T13:14:22;9.40;99.90
12436;DHT22;6282;51.440;6.938;2023-03-26T13:16:54;9.40;99.90
12436;DHT22;6282;51.440;6.938;2023-03-26T13:19:26;9.40;99.90
12436;DHT22;6282;51.440;6.938;2023-03-26T13:22:01;9.00;99.90
12436;DHT22;6282;51.440;6.938;2023-03-26T13:24:42;9.30;99.90
12436;DHT22;6282;51.440;6.938;2023-03-26T13:27:25;9.30;99.90
12436;DHT22;6282;51.440;6.938;2023-03-26T13:30:00;9.60;99.90
12436;DHT22;6282;51.440;6.938;2023-03-26T13:32:37;9.90;99.90
12436;DHT22;6282;51.440;6.938;2023-03-26T13:35:14;9.60;99.90
12436;DHT22;6282;51.440;6.938;2023-03-26T13:37:48;9.30;99.90
12436;DHT22;6282;51.440;6.938;2023-03-26T13:40:24;9.30;99.90
12436;DHT22;6282;51.440;6.938;2023-03-26T13:43:07;9.00;99.90
12436;DHT22;6282;51.440;6.938;2023-03-26T13:45:47;9.20;99.90
12436;DHT22;6282;51.440;6.938;2023-03-26T13:48:21;9.00;99.90
12436;DHT22;6282;51.440;6.938;2023-03-26T13:50:56;9.00;99.90
12436;DHT22;6282;51.440;6.938;2023-03-26T13:53:25;8.90;99.90
12436;DHT22;6282;51.440;6.938;2023-03-26T13:55:57;8.90;99.90
12436;DHT22;6282;51.440;6.938;2023-03-26T13:58:31;8.80;99.90
12436;DHT22;6282;51.440;6.938;2023-03-26T14:01:05;8.70;99.90
12436;DHT22;6282;51.440;6.938;2023-03-26T14:03:42;8.60;99.90
12436;DHT22;6282;51.440;6.938;2023-03-26T14:06:23;8.90;99.90
12436;DHT22;6282;51.440;6.938;2023-03-26T14:08:56;9.10;99.90
12436;DHT22;6282;51.440;6.938;2023-03-26T14:11:31;9.10;99.90
12436;DHT22;6282;51.440;6.938;2023-03-26T14:14:05;8.90;99.90
12436;DHT22;6282;51.440;6.938;2023-03-26T14:16:37;9.20;99.90
12436;DHT22;6282;51.440;6.938;2023-03-26T14:19:23;9.20;99.90
12436;DHT22;6282;51.440;6.938;2023-03-26T14:22:07;9.40;99.90
12436;DHT22;6282;51.440;6.938;2023-03-26T14:24:56;9.40;99.90
12436;DHT22;6282;51.440;6.938;2023-03-26T14:27:37;9.20;99.90
12436;DHT22;6282;51.440;6.938;2023-03-26T14:30:28;9.30;99.90
12436;DHT22;6282;51.440;6.938;2023-03-26T14:33:18;9.20;99.90
12436;DHT22;6282;51.440;6.938;2023-03-26T14:35:58;9.50;99.90
12436;DHT22;6282;51.440;6.938;2023-03-26T14:41:28;9.10;99.90
12436;DHT22;6282;51.440;6.938;2023-03-26T14:47:13;9.10;99.90
12436;DHT22;6282;51.440;6.938;2023-03-26T14:50:00;9.10;99.90
12436;DHT22;6282;51.440;6.938;2023-03-26T14:52:45;9.20;99.90
12436;DHT22;6282;51.440;6.938;2023-03-26T14:55:16;8.90;99.90
12436;DHT22;6282;51.440;6.938;2023-03-26T14:58:11;8.80;99.90
12436;DHT22;6282;51.440;6.938;2023-03-26T15:01:20;8.70;99.90
12436;DHT22;6282;51.440;6.938;2023-03-26T15:04:18;8.50;99.90
12436;DHT22;6282;51.440;6.938;2023-03-26T15:07:15;8.20;99.90
12436;DHT22;6282;51.440;6.938;2023-03-26T15:10:13;8.40;99.90
12436;DHT22;6282;51.440;6.938;2023-03-26T15:13:04;8.30;99.90
12436;DHT22;6282;51.440;6.938;2023-03-26T15:15:52;8.20;99.90
12436;DHT22;6282;51.440;6.938;2023-03-26T15:19:02;8.30;99.90
12436;DHT22;6282;51.440;6.938;2023-03-26T15:22:06;8.20;99.90
12436;DHT22;6282;51.440;6.938;2023-03-26T15:31:21;8.40;99.90
12436;DHT22;6282;51.440;6.938;2023-03-26T15:34:17;8.50;99.90
12436;DHT22;6282;51.440;6.938;2023-03-26T15:43:02;8.60;99.90
12436;DHT22;6282;51.440;6.938;2023-03-26T15:45:35;8.50;99.90
12436;DHT22;6282;51.440;6.938;2023-03-26T15:48:31;8.40;99.90
12436;DHT22;6282;51.440;6.938;2023-03-26T15:53:56;8.20;99.90
12436;DHT22;6282;51.440;6.938;2023-03-26T15:56:36;8.00;99.90
12436;DHT22;6282;51.440;6.938;2023-03-26T15:59:12;7.90;99.90
12436;DHT22;6282;51.440;6.938;2023-03-26T16:01:54;7.90;99.90
12436;DHT22;6282;51.440;6.938;2023-03-26T16:04:37;7.80;99.90
12436;DHT22;6282;51.440;6.938;2023-03-26T16:07:09;7.90;99.90
12436;DHT22;6282;51.440;6.938;2023-03-26T16:09:48;7.80;99.90
12436;DHT22;6282;51.440;6.938;2023-03-26T16:12:28;7.70;99.90
12436;DHT22;6282;51.440;6.938;2023-03-26T16:15:14;7.40;99.90
12436;DHT22;6282;51.440;6.938;2023-03-26T16:18:18;7.40;99.90
12436;DHT22;6282;51.440;6.938;2023-03-26T16:20:49;7.50;99.90
12436;DHT22;6282;51.440;6.938;2023-03-26T16:23:24;7.60;99.90
12436;DHT22;6282;51.440;6.938;2023-03-26T16:25:57;7.50;99.90
12436;DHT22;6282;51.440;6.938;2023-03-26T16:28:31;7.70;99.90
12436;DHT22;6282;51.440;6.938;2023-03-26T16:31:21;7.50;99.90
12436;DHT22;6282;51.440;6.938;2023-03-26T16:33:55;7.50;99.90
12436;DHT22;6282;51.440;6.938;2023-03-26T16:36:28;7.40;99.90
12436;DHT22;6282;51.440;6.938;2023-03-26T16:42:22;7.20;99.90
12436;DHT22;6282;51.440;6.938;2023-03-26T16:44:57;7.30;99.90
12436;DHT22;6282;51.440;6.938;2023-03-26T16:47:30;7.40;99.90
12436;DHT22;6282;51.440;6.938;2023-03-26T16:50:08;7.40;99.90
12436;DHT22;6282;51.440;6.938;2023-03-26T16:52:49;7.20;99.90
12436;DHT22;6282;51.440;6.938;2023-03-26T16:55:24;7.30;99.90
12436;DHT22;6282;51.440;6.938;2023-03-26T16:58:02;7.30;99.90
12436;DHT22;6282;51.440;6.938;2023-03-26T17:00:44;7.40;99.90
12436;DHT22;6282;51.440;6.938;2023-03-26T17:03:24;7.40;99.90
12436;DHT22;6282;51.440;6.938;2023-03-26T17:08:51;7.20;99.90
12436;DHT22;6282;51.440;6.938;2023-03-26T17:11:25;7.10;99.90
12436;DHT22;6282;51.440;6.938;2023-03-26T17:14:02;7.30;99.90
12436;DHT22;6282;51.440;6.938;2023-03-26T17:16:34;7.30;99.90
12436;DHT22;6282;51.440;6.938;2023-03-26T17:19:13;7.20;99.90
12436;DHT22;6282;51.440;6.938;2023-03-26T17:21:53;7.20;99.90
12436;DHT22;6282;51.440;6.938;2023-03-26T17:24:28;7.00;99.90
12436;DHT22;6282;51.440;6.938;2023-03-26T17:27:03;7.00;99.90
12436;DHT22;6282;51.440;6.938;2023-03-26T17:29:46;7.30;99.90
12436;DHT22;6282;51.440;6.938;2023-03-26T17:32:14;7.30;99.90
12436;DHT22;6282;51.440;6.938;2023-03-26T17:34:53;7.10;99.90
12436;DHT22;6282;51.440;6.938;2023-03-26T17:37:36;7.20;99.90
12436;DHT22;6282;51.440;6.938;2023-03-26T17:40:46;7.20;99.90